Grosse Pointe Farms, Michigan
Current Conditions -  °F | °C
As of 1:53 AM on Monday 22 Dec 2014 (Local Time) from KDET Reporting Station
Clear Clear  
Wind Chill: 29°   Ceiling: Unl
Heat Index: 29°   Visibility: 7mi
Dew Point: 22°   Wind: 3mph
Humidity: 75%   Direction: 120°ESE
Pressure: 30.17"   Gusts: NA
Location:  42.4243°N, 82.8975°W
Report Text: KDET 220653Z 12003KT 7SM CLR M02/M06 A3017 RMK AO2 SLP223 T10171056 $
Loading
Personal Weather Stations






























Interactive Weather Map New forecast layout! Learn more

10-Day Weather Forecast

Advertisements
Track Severe Weather on mobile